Time;durP1;ratioP1;P1;durP2;ratioP2;P2;SDS_P1;SDS_P2;PMS_P1;PMS_P2;Temp;Humidity;BMP_temperature;BMP_pressure;BME280_temperature;BME280_humidity;BME280_pressure;Samples;Min_cycle;Max_cycle;Signal;HPM_P1;HPM_P2
2022/12/01 00:00:58;;;;;;;125.63;51.28;;;6.80;99.90;;;;;;5060874;28;20673;-76
2022/12/01 00:03:24;;;;;;;124.00;50.80;;;6.90;99.90;;;;;;5065915;28;20673;-77
2022/12/01 00:06:11;;;;;;;121.30;50.83;;;6.90;99.90;;;;;;5068605;28;20187;-78
2022/12/01 00:08:36;;;;;;;122.90;50.35;;;6.90;99.90;;;;;;5089790;28;20179;-76
2022/12/01 00:11:05;;;;;;;125.55;50.90;;;6.80;99.90;;;;;;5070631;28;20313;-76
2022/12/01 00:13:32;;;;;;;123.65;51.05;;;6.90;99.90;;;;;;5066765;28;20174;-75
2022/12/01 00:16:07;;;;;;;127.75;51.70;;;6.90;99.90;;;;;;5064020;28;20198;-76
2022/12/01 00:18:33;;;;;;;129.93;52.15;;;6.80;99.90;;;;;;5071974;28;20169;-76
2022/12/01 00:20:58;;;;;;;119.30;49.25;;;6.80;99.90;;;;;;5068773;28;20186;-76
2022/12/01 00:23:24;;;;;;;122.03;51.58;;;6.80;99.90;;;;;;5071732;28;20186;-76
2022/12/01 00:25:50;;;;;;;129.38;51.83;;;6.80;99.90;;;;;;5060958;28;20636;-77
2022/12/01 00:28:16;;;;;;;122.28;51.38;;;6.80;99.90;;;;;;5056933;28;20309;-77
2022/12/01 00:30:41;;;;;;;122.82;51.10;;;6.80;99.90;;;;;;5070819;28;20189;-76
2022/12/01 00:33:07;;;;;;;123.07;51.03;;;6.80;99.90;;;;;;5074844;28;20206;-76
2022/12/01 00:35:33;;;;;;;132.00;52.22;;;6.80;99.90;;;;;;5073448;28;20186;-76
2022/12/01 00:37:58;;;;;;;136.23;54.25;;;6.80;99.90;;;;;;5065741;28;20206;-77
2022/12/01 00:40:24;;;;;;;132.25;53.72;;;6.80;99.90;;;;;;5062411;28;20185;-82
2022/12/01 00:42:50;;;;;;;130.13;52.45;;;6.80;99.90;;;;;;5080185;28;20218;-77
2022/12/01 00:45:16;;;;;;;131.63;53.03;;;6.80;99.90;;;;;;5075852;28;20190;-79
2022/12/01 00:47:41;;;;;;;128.05;53.55;;;6.90;99.90;;;;;;5073721;28;20183;-79
2022/12/01 00:50:08;;;;;;;133.65;52.97;;;6.80;99.90;;;;;;5084759;28;20602;-78
2022/12/01 00:52:34;;;;;;;131.52;52.22;;;6.80;99.90;;;;;;5059554;28;20197;-78
2022/12/01 00:55:00;;;;;;;141.57;53.42;;;6.80;99.90;;;;;;5089223;28;20186;-78
2022/12/01 00:57:25;;;;;;;139.77;55.28;;;6.90;99.90;;;;;;5073688;28;20556;-77
2022/12/01 00:59:51;;;;;;;126.13;52.47;;;6.80;99.90;;;;;;5073674;28;20174;-78
2022/12/01 01:02:17;;;;;;;130.55;53.80;;;6.80;99.90;;;;;;5064755;28;20341;-83
2022/12/01 01:04:42;;;;;;;129.98;52.58;;;6.90;99.90;;;;;;5057814;28;20183;-79
2022/12/01 01:07:08;;;;;;;142.23;54.08;;;6.80;99.90;;;;;;5085278;28;20187;-77
2022/12/01 01:09:34;;;;;;;137.40;53.80;;;6.90;99.90;;;;;;5064279;28;20179;-79
2022/12/01 01:12:00;;;;;;;133.00;53.40;;;6.90;99.90;;;;;;5067534;28;20222;-79
2022/12/01 01:14:26;;;;;;;131.07;54.42;;;6.90;99.90;;;;;;5084428;28;20646;-77
2022/12/01 01:16:52;;;;;;;131.10;52.40;;;6.90;99.90;;;;;;5056202;28;20196;-77
2022/12/01 01:19:18;;;;;;;134.32;53.45;;;6.90;99.90;;;;;;5066355;28;20190;-80
2022/12/01 01:21:44;;;;;;;127.28;53.15;;;6.90;99.90;;;;;;5063161;28;20210;-78
2022/12/01 01:24:10;;;;;;;136.55;54.55;;;6.90;99.90;;;;;;5062050;28;20197;-79
2022/12/01 01:26:36;;;;;;;132.68;54.00;;;6.90;99.90;;;;;;5058343;28;20194;-78
2022/12/01 01:29:05;;;;;;;128.00;54.17;;;6.90;99.90;;;;;;5080595;28;20210;-77
2022/12/01 01:31:31;;;;;;;128.25;53.05;;;6.80;99.90;;;;;;5062376;28;20190;-79
2022/12/01 01:33:57;;;;;;;132.75;55.53;;;6.90;99.90;;;;;;5071397;28;20187;-77
2022/12/01 01:36:23;;;;;;;132.20;53.22;;;6.80;99.90;;;;;;5072324;28;20182;-77
2022/12/01 01:38:54;;;;;;;135.45;52.33;;;6.90;99.90;;;;;;5089806;28;20189;-77
2022/12/01 01:41:20;;;;;;;135.63;53.38;;;6.90;99.90;;;;;;5063509;28;20202;-79
2022/12/01 01:43:49;;;;;;;133.82;52.72;;;6.90;99.90;;;;;;5060020;28;20262;-81
2022/12/01 01:46:24;;;;;;;129.40;52.28;;;6.90;99.90;;;;;;5065104;28;20206;-78
2022/12/01 01:48:59;;;;;;;133.05;53.95;;;6.90;99.90;;;;;;5089645;28;20645;-78
2022/12/01 01:51:34;;;;;;;130.40;52.80;;;6.90;99.90;;;;;;5070618;28;20190;-77
2022/12/01 01:54:07;;;;;;;133.25;53.10;;;6.90;99.90;;;;;;5065038;28;20179;-77
2022/12/01 01:56:35;;;;;;;138.00;54.40;;;6.90;99.90;;;;;;5072844;28;20187;-77
2022/12/01 01:59:02;;;;;;;132.13;53.38;;;6.90;99.90;;;;;;5074360;28;20189;-78
2022/12/01 02:01:28;;;;;;;132.65;53.25;;;6.80;99.90;;;;;;5067892;28;20202;-80
2022/12/01 02:03:55;;;;;;;128.32;53.75;;;6.80;99.90;;;;;;5060028;28;20186;-77
2022/12/01 02:06:23;;;;;;;129.48;53.78;;;6.80;99.90;;;;;;5092493;28;20214;-84
2022/12/01 02:08:49;;;;;;;126.05;52.45;;;6.90;99.90;;;;;;5072409;28;20266;-79
2022/12/01 02:11:50;;;;;;;132.32;53.90;;;6.90;99.90;;;;;;5061509;28;20227;-79
2022/12/01 02:14:55;;;;;;;137.23;52.60;;;6.80;99.90;;;;;;5071233;28;20665;-77
2022/12/01 02:17:26;;;;;;;136.23;54.25;;;6.90;99.90;;;;;;5060623;28;20183;-77
2022/12/01 02:20:14;;;;;;;126.00;51.67;;;6.90;99.90;;;;;;5054113;28;20167;-77
2022/12/01 02:22:45;;;;;;;135.18;54.10;;;6.90;99.90;;;;;;5065504;28;20249;-78
2022/12/01 02:25:53;;;;;;;130.18;53.50;;;6.90;99.90;;;;;;5072142;28;20208;-78
2022/12/01 02:28:41;;;;;;;138.20;55.42;;;6.90;99.90;;;;;;4981167;28;20193;-77
2022/12/01 02:31:17;;;;;;;130.18;54.53;;;6.90;99.90;;;;;;5064331;28;20288;-78
2022/12/01 02:34:05;;;;;;;138.02;54.72;;;6.90;99.90;;;;;;5072148;28;20178;-78
2022/12/01 02:36:47;;;;;;;131.15;55.15;;;6.90;99.90;;;;;;5070782;28;20178;-78
2022/12/01 02:39:36;;;;;;;131.32;55.33;;;6.90;99.90;;;;;;5072838;28;20171;-77
2022/12/01 02:42:48;;;;;;;138.93;55.13;;;6.90;99.90;;;;;;5059183;28;20255;-78
2022/12/01 02:45:09;;;;;;;125.47;53.60;;;6.90;99.90;;;;;;5064799;28;20178;-79
2022/12/01 02:47:37;;;;;;;140.50;53.30;;;6.90;99.90;;;;;;5071576;28;20175;-77
2022/12/01 02:50:04;;;;;;;137.38;54.70;;;6.90;99.90;;;;;;5069671;28;20273;-80
2022/12/01 02:52:30;;;;;;;141.77;56.85;;;6.80;99.90;;;;;;5057688;28;20179;-77
2022/12/01 02:54:56;;;;;;;133.52;55.30;;;6.80;99.90;;;;;;5051431;28;20202;-79
2022/12/01 02:57:23;;;;;;;130.80;53.15;;;6.80;99.90;;;;;;5064256;28;20221;-77
2022/12/01 02:59:53;;;;;;;137.15;52.55;;;6.80;99.90;;;;;;5071362;28;20182;-77
2022/12/01 03:02:50;;;;;;;139.63;54.42;;;6.80;99.90;;;;;;5060082;28;20790;-78
2022/12/01 03:05:47;;;;;;;134.80;54.42;;;6.70;99.90;;;;;;5061313;28;20191;-78
2022/12/01 03:08:33;;;;;;;136.25;55.15;;;6.80;99.90;;;;;;5071594;28;20206;-78
2022/12/01 03:11:00;;;;;;;135.48;55.20;;;6.80;99.90;;;;;;5071148;28;20222;-78
2022/12/01 03:13:52;;;;;;;135.27;54.90;;;6.80;99.90;;;;;;5068969;28;20277;-77
2022/12/01 03:16:46;;;;;;;142.95;56.72;;;6.80;99.90;;;;;;5070463;28;20270;-78
2022/12/01 03:19:17;;;;;;;138.10;54.45;;;6.80;99.90;;;;;;5057929;28;20196;-77
2022/12/01 03:21:55;;;;;;;140.40;55.47;;;6.80;99.90;;;;;;5086595;28;20214;-78
2022/12/01 03:24:25;;;;;;;138.40;55.95;;;6.80;99.90;;;;;;5062298;28;20196;-79
2022/12/01 03:26:56;;;;;;;147.98;54.70;;;6.80;99.90;;;;;;5065963;28;20190;-78
2022/12/01 03:29:40;;;;;;;146.82;56.15;;;6.80;99.90;;;;;;5053722;28;20187;-78
2022/12/01 03:32:14;;;;;;;137.75;56.30;;;6.80;99.90;;;;;;5070902;28;20682;-78
2022/12/01 03:34:48;;;;;;;142.85;56.15;;;6.80;99.90;;;;;;5063842;28;20186;-83
2022/12/01 03:37:23;;;;;;;138.27;53.55;;;6.80;99.90;;;;;;5065351;28;20599;-78
2022/12/01 03:39:55;;;;;;;132.90;54.65;;;6.80;99.90;;;;;;5055184;28;20253;-77
2022/12/01 03:42:46;;;;;;;139.70;55.28;;;6.80;99.90;;;;;;5075931;28;20202;-78
2022/12/01 03:45:35;;;;;;;148.43;56.85;;;6.80;99.90;;;;;;5065701;28;20935;-80
2022/12/01 03:48:01;;;;;;;140.82;53.60;;;6.80;99.90;;;;;;5055958;28;20647;-79
2022/12/01 03:50:35;;;;;;;142.40;56.95;;;6.80;99.90;;;;;;5058300;28;20194;-79
2022/12/01 03:53:18;;;;;;;142.43;57.63;;;6.80;99.90;;;;;;5062735;28;20610;-78
2022/12/01 03:55:50;;;;;;;134.75;54.05;;;6.80;99.90;;;;;;5070439;28;20183;-82
2022/12/01 03:58:24;;;;;;;135.07;55.20;;;6.80;99.90;;;;;;5072062;28;20210;-79
2022/12/01 04:00:54;;;;;;;142.30;54.63;;;6.80;99.90;;;;;;5067024;28;20263;-78
2022/12/01 04:03:23;;;;;;;135.70;54.83;;;6.80;99.90;;;;;;5051269;28;20756;-78
2022/12/01 04:05:50;;;;;;;136.10;55.35;;;6.80;99.90;;;;;;5078236;28;20178;-79
2022/12/01 04:08:16;;;;;;;136.02;54.63;;;6.80;99.90;;;;;;5073846;28;20325;-78
2022/12/01 04:10:42;;;;;;;132.07;54.33;;;6.80;99.90;;;;;;5079996;28;20264;-82
2022/12/01 04:13:15;;;;;;;145.82;55.92;;;6.80;99.90;;;;;;5073985;28;20269;-78
2022/12/01 04:15:41;;;;;;;139.82;56.28;;;6.70;99.90;;;;;;5082549;28;20179;-78
2022/12/01 04:18:07;;;;;;;142.23;55.60;;;6.70;99.90;;;;;;5076174;28;20178;-78
2022/12/01 04:20:33;;;;;;;140.98;56.58;;;6.70;99.90;;;;;;5070667;28;20183;-78
2022/12/01 04:22:58;;;;;;;145.63;55.95;;;6.70;99.90;;;;;;5073235;28;20222;-80
2022/12/01 04:25:24;;;;;;;148.52;56.72;;;6.70;99.90;;;;;;5073235;28;20210;-78
2022/12/01 04:27:50;;;;;;;144.07;55.83;;;6.70;99.90;;;;;;5074265;28;20179;-78
2022/12/01 04:30:15;;;;;;;133.52;55.15;;;6.70;99.90;;;;;;5071738;28;20252;-78
2022/12/01 04:32:42;;;;;;;134.52;55.78;;;6.70;99.90;;;;;;5064758;28;20197;-77
2022/12/01 04:35:10;;;;;;;151.25;58.50;;;6.80;99.90;;;;;;5075611;28;20265;-79
2022/12/01 04:37:36;;;;;;;136.13;54.55;;;6.80;99.90;;;;;;5056719;28;20178;-78
2022/12/01 04:40:03;;;;;;;138.77;56.63;;;6.80;99.90;;;;;;5075248;28;20171;-78
2022/12/01 04:42:29;;;;;;;145.20;56.22;;;6.80;99.90;;;;;;5062374;28;20223;-78
2022/12/01 04:44:54;;;;;;;142.80;56.08;;;6.80;99.90;;;;;;5072397;28;20178;-78
2022/12/01 04:47:20;;;;;;;142.18;57.25;;;6.80;99.90;;;;;;5073952;28;20649;-81
2022/12/01 04:49:46;;;;;;;141.82;54.65;;;6.80;99.90;;;;;;5073345;28;20207;-82
2022/12/01 04:52:11;;;;;;;133.25;52.40;;;6.70;99.90;;;;;;5066963;28;20566;-80
2022/12/01 04:54:37;;;;;;;139.85;54.92;;;6.80;99.90;;;;;;5058619;28;20186;-79
2022/12/01 04:57:03;;;;;;;141.82;55.33;;;6.80;99.90;;;;;;5062659;28;20224;-78
2022/12/01 04:59:29;;;;;;;136.27;55.67;;;6.70;99.90;;;;;;5075007;28;20175;-79
2022/12/01 05:01:54;;;;;;;142.68;55.60;;;6.70;99.90;;;;;;5071483;28;20843;-78
2022/12/01 05:04:20;;;;;;;147.55;57.53;;;6.80;99.90;;;;;;5073971;28;20186;-78
2022/12/01 05:06:46;;;;;;;126.88;54.95;;;6.70;99.90;;;;;;5083750;28;20552;-78
2022/12/01 05:09:13;;;;;;;150.38;55.22;;;6.80;99.90;;;;;;5074501;28;20182;-78
2022/12/01 05:11:39;;;;;;;144.57;55.95;;;6.70;99.90;;;;;;5073482;28;20222;-78
2022/12/01 05:14:05;;;;;;;139.88;56.75;;;6.70;99.90;;;;;;5061146;28;20190;-77
2022/12/01 05:16:32;;;;;;;140.65;55.67;;;6.70;99.90;;;;;;5044276;28;20282;-78
2022/12/01 05:21:46;;;;;;;132.35;54.63;;;6.70;99.90;;;;;;5073402;28;20198;-78
2022/12/01 05:24:13;;;;;;;134.00;52.63;;;6.70;99.90;;;;;;5074842;28;20226;-79
2022/12/01 05:26:40;;;;;;;135.60;54.08;;;6.60;99.90;;;;;;5060266;28;20277;-85
2022/12/01 05:29:05;;;;;;;133.23;54.80;;;6.60;99.90;;;;;;5068435;28;20272;-78
2022/12/01 05:31:31;;;;;;;135.25;54.65;;;6.50;99.90;;;;;;5071218;28;20190;-78
2022/12/01 05:33:57;;;;;;;135.23;52.95;;;6.50;99.90;;;;;;5074299;28;20206;-79
2022/12/01 05:36:23;;;;;;;136.05;54.00;;;6.50;99.90;;;;;;5067614;28;20218;-79
2022/12/01 05:38:49;;;;;;;134.25;54.65;;;6.50;99.90;;;;;;5061633;28;20193;-79
2022/12/01 05:41:15;;;;;;;127.15;52.90;;;6.50;99.90;;;;;;5071770;28;20221;-77
2022/12/01 05:43:40;;;;;;;135.20;52.80;;;6.40;99.90;;;;;;5071264;28;20179;-79
2022/12/01 05:46:07;;;;;;;130.10;52.63;;;6.40;99.90;;;;;;5069875;28;20198;-78
2022/12/01 05:48:32;;;;;;;131.48;53.88;;;6.30;99.90;;;;;;5064199;28;20665;-78
2022/12/01 05:50:58;;;;;;;136.95;55.10;;;6.30;99.90;;;;;;5061643;28;20190;-85
2022/12/01 05:53:24;;;;;;;138.23;53.47;;;6.20;99.90;;;;;;5063704;28;20178;-84
2022/12/01 05:55:53;;;;;;;131.43;52.08;;;6.20;99.90;;;;;;5068443;28;20178;-83
2022/12/01 05:58:20;;;;;;;134.23;51.80;;;6.20;99.90;;;;;;5065661;28;20190;-81
2022/12/01 06:00:46;;;;;;;141.63;53.28;;;6.10;99.90;;;;;;5060466;28;20175;-78
2022/12/01 06:03:12;;;;;;;143.20;53.38;;;6.10;99.90;;;;;;5064140;28;20223;-81
2022/12/01 06:05:39;;;;;;;140.32;51.78;;;6.10;99.90;;;;;;5061304;28;20310;-78
2022/12/01 06:08:05;;;;;;;124.55;50.53;;;6.10;99.90;;;;;;5074011;28;20183;-78
2022/12/01 06:10:30;;;;;;;129.93;51.38;;;6.10;99.90;;;;;;5074002;28;20219;-77
2022/12/01 06:12:56;;;;;;;131.35;52.35;;;6.10;99.90;;;;;;5070158;28;20186;-77
2022/12/01 06:15:22;;;;;;;130.50;52.97;;;6.20;99.90;;;;;;5064526;28;20672;-79
2022/12/01 06:17:47;;;;;;;142.93;53.28;;;6.10;99.90;;;;;;5070290;28;20213;-78
2022/12/01 06:20:13;;;;;;;129.63;52.55;;;6.20;99.90;;;;;;5061936;28;20209;-78
2022/12/01 06:22:39;;;;;;;139.77;53.08;;;6.20;99.90;;;;;;5067484;28;20268;-78
2022/12/01 06:25:06;;;;;;;130.15;52.03;;;6.20;99.90;;;;;;5070427;28;20194;-78
2022/12/01 06:27:31;;;;;;;130.20;52.10;;;6.20;99.90;;;;;;5066752;28;20186;-78
2022/12/01 06:29:57;;;;;;;129.07;51.72;;;6.20;99.90;;;;;;5084952;28;20212;-79
2022/12/01 06:32:23;;;;;;;126.68;51.13;;;6.20;99.90;;;;;;5088286;28;20770;-79
2022/12/01 06:34:48;;;;;;;130.18;50.75;;;6.20;99.90;;;;;;5070826;28;20186;-77
2022/12/01 06:37:15;;;;;;;126.13;50.63;;;6.20;99.90;;;;;;5055393;28;20191;-77
2022/12/01 06:39:41;;;;;;;125.60;49.70;;;6.20;99.90;;;;;;5073407;28;20198;-77
2022/12/01 06:42:07;;;;;;;124.40;50.90;;;6.20;99.90;;;;;;5083905;28;20214;-80
2022/12/01 06:44:32;;;;;;;127.88;49.97;;;6.20;99.90;;;;;;5059293;28;20191;-75
2022/12/01 06:46:58;;;;;;;122.47;50.58;;;6.10;99.90;;;;;;5066594;28;20217;-77
2022/12/01 06:49:24;;;;;;;119.38;50.28;;;6.20;99.90;;;;;;5061124;28;20653;-76
2022/12/01 06:51:50;;;;;;;123.55;49.83;;;6.10;99.90;;;;;;5064438;28;20646;-75
2022/12/01 06:54:16;;;;;;;126.13;50.33;;;6.20;99.90;;;;;;5064542;28;20194;-76
2022/12/01 06:56:44;;;;;;;115.18;46.90;;;6.20;99.90;;;;;;5071550;28;20618;-77
2022/12/01 06:59:09;;;;;;;113.70;46.75;;;6.20;99.90;;;;;;5059175;28;20215;-75
2022/12/01 07:01:35;;;;;;;117.93;46.92;;;6.10;99.90;;;;;;5055862;28;20253;-76
2022/12/01 07:04:01;;;;;;;108.13;45.53;;;6.10;99.90;;;;;;5071758;28;20251;-76
2022/12/01 07:06:29;;;;;;;110.70;45.30;;;6.20;99.90;;;;;;5063630;28;20647;-75
2022/12/01 07:08:55;;;;;;;115.22;47.13;;;6.10;99.90;;;;;;5049974;28;20662;-76
2022/12/01 07:11:21;;;;;;;111.75;44.97;;;6.10;99.90;;;;;;5058456;28;20248;-80
2022/12/01 07:13:48;;;;;;;111.00;45.92;;;6.00;99.90;;;;;;5059458;28;20261;-76
2022/12/01 07:16:14;;;;;;;113.07;45.10;;;5.90;99.90;;;;;;5068009;28;20209;-81
2022/12/01 07:18:43;;;;;;;105.50;44.70;;;5.90;99.90;;;;;;5071892;28;20174;-76
2022/12/01 07:21:11;;;;;;;108.55;44.08;;;5.90;99.90;;;;;;5061282;28;20189;-78
2022/12/01 07:23:37;;;;;;;109.95;42.78;;;5.80;99.90;;;;;;5059029;28;20191;-77
2022/12/01 07:26:11;;;;;;;101.93;42.20;;;5.70;99.90;;;;;;5057066;28;20193;-76
2022/12/01 07:28:36;;;;;;;78.72;36.10;;;5.60;99.90;;;;;;5069250;28;20182;-77
2022/12/01 07:31:10;;;;;;;86.68;37.22;;;5.60;99.90;;;;;;5057509;28;20815;-79
2022/12/01 07:33:36;;;;;;;79.75;36.15;;;5.50;99.90;;;;;;5072307;28;20588;-77
2022/12/01 07:36:03;;;;;;;70.20;33.60;;;5.50;99.90;;;;;;5069424;28;20305;-77
2022/12/01 07:38:30;;;;;;;74.35;33.10;;;5.50;99.90;;;;;;5072541;28;20201;-76
2022/12/01 07:41:08;;;;;;;75.32;35.28;;;5.50;99.90;;;;;;5065169;28;20182;-78
2022/12/01 07:43:34;;;;;;;65.03;30.23;;;5.40;99.90;;;;;;5065539;28;20178;-76
2022/12/01 07:46:16;;;;;;;57.80;29.05;;;5.40;99.90;;;;;;5073758;28;20482;-75
2022/12/01 07:48:42;;;;;;;57.45;28.48;;;5.40;99.90;;;;;;5068726;28;20170;-75
2022/12/01 07:51:09;;;;;;;55.50;27.08;;;5.40;99.90;;;;;;5061883;28;20201;-82
2022/12/01 07:53:36;;;;;;;56.28;27.00;;;5.40;99.90;;;;;;5081131;28;20630;-76
2022/12/01 07:56:03;;;;;;;54.85;25.95;;;5.40;99.90;;;;;;5072729;28;20252;-76
2022/12/01 07:58:29;;;;;;;52.00;25.83;;;5.40;99.90;;;;;;5076218;28;20261;-75
2022/12/01 08:00:55;;;;;;;49.60;24.98;;;5.30;99.90;;;;;;5072933;28;20423;-75
2022/12/01 08:03:21;;;;;;;50.50;25.00;;;5.30;99.90;;;;;;5076386;28;20685;-75
2022/12/01 08:05:57;;;;;;;46.97;25.00;;;5.30;99.90;;;;;;5086008;28;20609;-80
2022/12/01 08:08:25;;;;;;;50.75;25.50;;;5.40;99.90;;;;;;5071599;28;20252;-77
2022/12/01 08:10:52;;;;;;;48.85;25.90;;;5.30;99.90;;;;;;5066713;28;20226;-77
2022/12/01 08:13:18;;;;;;;45.17;24.63;;;5.30;99.90;;;;;;5069627;28;20190;-77
2022/12/01 08:15:44;;;;;;;53.20;25.35;;;5.40;99.90;;;;;;5071049;28;20300;-80
2022/12/01 08:18:10;;;;;;;42.72;23.70;;;5.30;99.90;;;;;;5088440;28;20270;-76
2022/12/01 08:20:36;;;;;;;39.97;22.23;;;5.40;99.90;;;;;;5074555;28;20272;-76
2022/12/01 08:23:03;;;;;;;44.45;22.70;;;5.30;99.90;;;;;;5074324;28;20642;-76
2022/12/01 08:25:29;;;;;;;44.03;23.80;;;5.40;99.90;;;;;;5065788;28;20924;-80
2022/12/01 08:27:56;;;;;;;50.60;26.50;;;5.40;99.90;;;;;;5069134;28;20182;-76
2022/12/01 08:30:22;;;;;;;47.47;24.75;;;5.40;99.90;;;;;;5074306;28;20292;-76
2022/12/01 08:32:48;;;;;;;46.47;23.92;;;5.40;99.90;;;;;;5071770;28;20678;-76
2022/12/01 08:35:14;;;;;;;51.72;26.25;;;5.40;99.90;;;;;;5070228;28;20194;-75
2022/12/01 08:37:40;;;;;;;41.05;23.27;;;5.50;99.90;;;;;;5064491;28;20191;-76
2022/12/01 08:40:06;;;;;;;42.42;24.23;;;5.60;99.90;;;;;;5066153;28;20193;-77
2022/12/01 08:42:32;;;;;;;44.45;25.10;;;5.80;99.90;;;;;;5066119;28;20689;-76
2022/12/01 08:44:58;;;;;;;49.15;26.02;;;6.00;99.90;;;;;;5073456;28;20171;-76
2022/12/01 08:47:23;;;;;;;44.42;23.77;;;6.30;99.90;;;;;;5073750;28;20186;-79
2022/12/01 08:49:49;;;;;;;47.33;24.95;;;6.50;99.90;;;;;;5068277;28;20189;-77
2022/12/01 08:52:15;;;;;;;47.58;25.00;;;6.80;99.90;;;;;;5072748;28;20607;-76
2022/12/01 08:54:40;;;;;;;42.53;23.85;;;7.10;99.90;;;;;;5074816;28;20178;-75
2022/12/01 08:57:06;;;;;;;43.65;25.42;;;7.40;99.90;;;;;;5062479;28;20194;-75
2022/12/01 08:59:32;;;;;;;39.33;23.75;;;7.70;99.90;;;;;;5054443;28;20176;-81
2022/12/01 09:01:58;;;;;;;36.03;23.13;;;7.90;99.90;;;;;;5060161;28;20338;-77
2022/12/01 09:04:25;;;;;;;37.53;21.88;;;8.10;99.90;;;;;;5056187;28;20240;-77
2022/12/01 09:06:53;;;;;;;38.22;23.08;;;8.30;99.90;;;;;;5083346;28;20171;-76
2022/12/01 09:09:21;;;;;;;34.72;23.30;;;8.60;99.90;;;;;;5074961;28;20328;-77
2022/12/01 09:11:47;;;;;;;41.20;25.55;;;8.80;99.90;;;;;;5073692;28;20689;-77
2022/12/01 09:14:15;;;;;;;33.92;21.17;;;9.00;99.90;;;;;;5070347;28;20240;-78
2022/12/01 09:16:42;;;;;;;35.38;22.08;;;9.20;99.90;;;;;;5054034;28;20545;-80
2022/12/01 09:19:08;;;;;;;37.08;24.75;;;9.30;99.90;;;;;;5065717;28;20297;-77
2022/12/01 09:21:36;;;;;;;34.45;21.65;;;9.40;99.90;;;;;;5067011;28;20746;-78
2022/12/01 09:24:05;;;;;;;35.55;21.40;;;9.60;99.90;;;;;;5061521;28;20191;-77
2022/12/01 09:26:31;;;;;;;35.20;21.70;;;9.70;99.90;;;;;;5070995;28;20186;-77
2022/12/01 09:29:03;;;;;;;32.80;20.58;;;9.90;99.90;;;;;;5073342;28;20178;-76
2022/12/01 09:31:29;;;;;;;34.47;21.10;;;10.00;99.90;;;;;;5069281;28;20186;-76
2022/12/01 09:33:56;;;;;;;32.92;20.95;;;10.10;99.90;;;;;;5063658;28;20312;-77
2022/12/01 09:36:22;;;;;;;35.20;21.70;;;10.20;99.90;;;;;;5066110;28;20211;-81
2022/12/01 09:38:48;;;;;;;31.50;21.10;;;10.30;99.90;;;;;;5054829;28;20230;-77
2022/12/01 09:41:16;;;;;;;30.65;20.98;;;10.50;99.90;;;;;;5069828;28;20210;-77
2022/12/01 09:43:55;;;;;;;36.40;22.65;;;10.50;99.90;;;;;;5072320;28;20210;-76
2022/12/01 09:46:29;;;;;;;34.30;20.92;;;10.60;99.90;;;;;;5071054;28;20178;-77
2022/12/01 09:48:56;;;;;;;33.95;20.48;;;10.60;99.90;;;;;;5074494;28;20265;-77
2022/12/01 09:51:26;;;;;;;32.75;20.95;;;10.70;99.90;;;;;;5064006;28;20550;-76
2022/12/01 09:53:55;;;;;;;31.63;21.65;;;10.70;99.90;;;;;;5071651;28;20206;-79
2022/12/01 09:56:24;;;;;;;35.10;21.90;;;10.70;99.90;;;;;;5072323;28;20284;-75
2022/12/01 09:58:56;;;;;;;33.67;21.50;;;10.80;99.90;;;;;;5073708;28;20232;-75
2022/12/01 10:01:40;;;;;;;36.72;21.42;;;10.70;99.90;;;;;;5071468;28;20228;-79
2022/12/01 10:04:36;;;;;;;32.70;20.92;;;10.80;99.90;;;;;;5064306;28;20198;-80
2022/12/01 10:07:18;;;;;;;35.47;22.13;;;10.80;99.90;;;;;;5060655;28;20795;-79
2022/12/01 10:09:54;;;;;;;36.00;20.70;;;10.80;99.90;;;;;;5067279;28;20196;-78
2022/12/01 10:12:26;;;;;;;33.35;21.42;;;10.90;99.90;;;;;;5067267;28;20233;-77
2022/12/01 10:15:13;;;;;;;37.35;21.67;;;10.90;99.90;;;;;;5073134;28;20284;-76
2022/12/01 10:17:58;;;;;;;35.50;22.20;;;11.00;99.90;;;;;;5067723;28;20231;-80
2022/12/01 10:20:52;;;;;;;36.47;22.92;;;11.00;99.90;;;;;;5059073;28;20223;-80
2022/12/01 10:23:38;;;;;;;39.47;22.50;;;11.10;99.90;;;;;;5069704;28;20626;-77
2022/12/01 10:26:07;;;;;;;42.70;23.55;;;11.10;99.90;;;;;;5065751;28;20191;-77
2022/12/01 10:28:36;;;;;;;40.63;23.33;;;11.10;99.90;;;;;;5071650;28;20638;-79
2022/12/01 10:31:19;;;;;;;39.00;24.52;;;11.10;99.90;;;;;;5068131;28;20178;-76
2022/12/01 10:34:06;;;;;;;40.97;24.67;;;11.00;99.90;;;;;;5069156;28;20638;-76
2022/12/01 10:36:33;;;;;;;45.38;24.92;;;10.90;99.90;;;;;;5070622;28;20181;-77
2022/12/01 10:39:02;;;;;;;52.03;28.70;;;10.60;99.90;;;;;;5070961;28;20186;-75
2022/12/01 10:41:32;;;;;;;52.97;29.50;;;10.40;99.90;;;;;;5069194;28;20289;-76
2022/12/01 10:43:59;;;;;;;56.67;31.17;;;10.20;99.90;;;;;;5070456;28;20301;-75
2022/12/01 10:46:32;;;;;;;55.45;30.63;;;10.00;99.90;;;;;;5064358;28;20275;-75
2022/12/01 10:49:05;;;;;;;60.58;32.00;;;9.80;99.90;;;;;;5071671;28;20202;-76
2022/12/01 10:51:49;;;;;;;60.50;32.70;;;9.70;99.90;;;;;;5055068;28;20261;-80
2022/12/01 10:54:15;;;;;;;60.17;30.95;;;9.50;99.90;;;;;;5061867;28;20260;-78
2022/12/01 10:56:44;;;;;;;66.10;31.17;;;9.40;99.90;;;;;;5066445;28;20278;-82
2022/12/01 10:59:27;;;;;;;60.40;32.70;;;9.30;99.90;;;;;;5062068;28;20263;-77
2022/12/01 11:01:53;;;;;;;59.95;33.17;;;9.20;99.90;;;;;;5067214;28;20662;-78
2022/12/01 11:04:45;;;;;;;63.83;33.85;;;9.20;99.90;;;;;;5077651;28;20183;-76
2022/12/01 11:07:30;;;;;;;69.78;35.03;;;9.20;99.90;;;;;;5064602;28;20182;-77
2022/12/01 11:10:24;;;;;;;64.03;35.17;;;9.30;99.90;;;;;;5057145;28;20179;-77
2022/12/01 11:13:11;;;;;;;69.20;34.60;;;9.30;99.90;;;;;;5066576;28;20240;-76
2022/12/01 11:15:50;;;;;;;64.03;34.58;;;9.40;99.90;;;;;;5070616;28;20174;-77
2022/12/01 11:18:26;;;;;;;67.38;34.78;;;9.60;99.90;;;;;;5070904;28;20256;-76
2022/12/01 11:21:06;;;;;;;71.47;34.42;;;9.70;99.90;;;;;;5070849;28;20261;-77
2022/12/01 11:23:43;;;;;;;66.90;34.97;;;9.80;99.90;;;;;;5067928;28;20221;-77
2022/12/01 11:26:14;;;;;;;66.90;33.08;;;10.00;99.90;;;;;;5070476;28;20185;-76
2022/12/01 11:29:02;;;;;;;61.83;33.55;;;10.00;99.90;;;;;;5071597;28;20336;-76
2022/12/01 11:31:43;;;;;;;65.10;31.83;;;10.10;99.90;;;;;;5068489;28;20297;-79
2022/12/01 11:34:30;;;;;;;63.78;34.33;;;10.10;99.90;;;;;;5061267;28;20186;-76
2022/12/01 11:37:00;;;;;;;61.10;33.38;;;10.10;99.90;;;;;;5066866;28;20338;-76
2022/12/01 11:39:31;;;;;;;63.33;34.10;;;10.20;99.90;;;;;;5062368;28;20626;-76
2022/12/01 11:42:03;;;;;;;62.45;34.63;;;10.30;99.90;;;;;;5068853;28;20623;-76
2022/12/01 11:44:31;;;;;;;60.50;34.40;;;10.40;99.90;;;;;;5085515;28;20583;-76
2022/12/01 11:47:14;;;;;;;64.00;33.38;;;10.50;99.90;;;;;;5065236;28;20179;-77
2022/12/01 11:49:43;;;;;;;63.63;33.60;;;10.50;99.90;;;;;;5070292;28;20182;-76
2022/12/01 11:52:26;;;;;;;60.13;33.38;;;10.50;99.90;;;;;;5069315;28;20561;-76
2022/12/01 11:55:28;;;;;;;63.53;34.28;;;10.30;99.90;;;;;;5063960;28;20185;-75
2022/12/01 11:57:59;;;;;;;66.57;34.38;;;10.20;99.90;;;;;;4993795;28;20196;-76
2022/12/01 12:00:29;;;;;;;64.25;35.78;;;10.00;99.90;;;;;;5056118;28;20212;-75
2022/12/01 12:03:19;;;;;;;68.95;34.20;;;9.80;99.90;;;;;;5050436;28;20245;-78
2022/12/01 12:06:07;;;;;;;68.63;35.10;;;9.60;99.90;;;;;;5075151;28;20189;-79
2022/12/01 12:08:51;;;;;;;70.78;35.10;;;9.50;99.90;;;;;;5059665;28;21976;-77
2022/12/01 12:11:41;;;;;;;67.53;34.75;;;9.50;99.90;;;;;;5054265;28;20468;-77
2022/12/01 12:14:28;;;;;;;65.97;34.40;;;9.50;99.90;;;;;;5063715;28;20575;-76
2022/12/01 12:17:08;;;;;;;66.22;35.45;;;9.60;99.90;;;;;;5057336;28;20175;-76
2022/12/01 12:19:52;;;;;;;61.65;33.92;;;9.60;99.90;;;;;;5082981;28;20214;-77
2022/12/01 12:22:33;;;;;;;63.58;34.03;;;9.60;99.90;;;;;;5057843;28;20731;-77
2022/12/01 12:25:23;;;;;;;59.67;33.50;;;9.60;99.90;;;;;;5060847;28;20182;-75
2022/12/01 12:27:54;;;;;;;66.57;35.42;;;9.60;99.90;;;;;;5064740;28;20179;-75
2022/12/01 12:30:28;;;;;;;60.42;34.10;;;9.50;99.90;;;;;;5069718;28;20189;-77
2022/12/01 12:33:14;;;;;;;64.72;35.15;;;9.50;99.90;;;;;;5060847;28;20178;-79
2022/12/01 12:35:51;;;;;;;66.07;34.95;;;9.40;99.90;;;;;;5060511;28;20183;-76
2022/12/01 12:39:05;;;;;;;63.80;34.97;;;9.40;99.90;;;;;;5083875;28;21379;-74
2022/12/01 12:41:44;;;;;;;70.57;35.17;;;9.30;99.90;;;;;;5047729;28;20206;-79
2022/12/01 12:44:22;;;;;;;70.15;35.47;;;9.30;99.90;;;;;;5079447;28;20187;-75
2022/12/01 12:47:06;;;;;;;61.67;34.58;;;9.40;99.90;;;;;;5061609;28;20235;-75
2022/12/01 12:49:42;;;;;;;67.38;34.33;;;9.40;99.90;;;;;;5070384;28;20597;-78
2022/12/01 12:52:25;;;;;;;65.22;34.55;;;9.30;99.90;;;;;;5064107;28;20187;-78
2022/12/01 12:55:11;;;;;;;67.22;34.88;;;9.20;99.90;;;;;;5065066;28;20174;-80